Time;durP1;ratioP1;P1;durP2;ratioP2;P2;SDS_P1;SDS_P2;PMS_P1;PMS_P2;Temp;Humidity;BMP_temperature;BMP_pressure;BME280_temperature;BME280_humidity;BME280_pressure;Samples;Min_cycle;Max_cycle;Signal;HPM_P1;HPM_P2
2021/05/04 00:01:52;;;;;;;8.48;5.03;;;7.80;1.00;;;;;;5086680;28;20051;-63
2021/05/04 00:04:40;;;;;;;7.18;4.50;;;7.80;1.00;;;;;;5082551;28;20637;-63
2021/05/04 00:07:27;;;;;;;6.63;4.78;;;7.80;1.00;;;;;;5083051;28;20048;-63
2021/05/04 00:10:14;;;;;;;5.65;3.83;;;7.80;1.00;;;;;;5080261;28;20044;-63
2021/05/04 00:13:01;;;;;;;6.78;4.30;;;7.80;1.00;;;;;;5076569;28;20837;-64
2021/05/04 00:15:48;;;;;;;4.55;3.92;;;7.80;1.00;;;;;;5077663;28;20054;-63
2021/05/04 00:18:37;;;;;;;5.70;3.55;;;7.80;1.00;;;;;;5083577;28;20045;-63
2021/05/04 00:21:24;;;;;;;6.22;3.92;;;7.90;1.00;;;;;;5085289;28;20040;-63
2021/05/04 00:24:11;;;;;;;5.03;4.10;;;7.80;1.00;;;;;;5085462;28;20047;-62
2021/05/04 00:26:59;;;;;;;6.68;4.80;;;7.80;1.00;;;;;;5083423;28;20055;-63
2021/05/04 00:29:46;;;;;;;5.95;4.40;;;7.80;1.00;;;;;;5081925;28;20492;-63
2021/05/04 00:32:33;;;;;;;7.38;4.75;;;7.80;1.00;;;;;;5079515;28;20069;-64
2021/05/04 00:35:21;;;;;;;6.78;4.93;;;7.80;1.00;;;;;;5079423;28;20215;-62
2021/05/04 00:38:09;;;;;;;8.18;4.65;;;7.70;1.00;;;;;;5081539;28;20045;-63
2021/05/04 00:40:56;;;;;;;5.80;4.53;;;7.70;1.00;;;;;;5083962;28;20559;-63
2021/05/04 00:43:43;;;;;;;5.95;4.38;;;7.70;1.00;;;;;;5084172;28;20050;-63
2021/05/04 00:46:31;;;;;;;7.35;4.47;;;7.70;1.00;;;;;;5083270;28;20047;-63
2021/05/04 00:49:18;;;;;;;9.60;4.72;;;7.60;1.00;;;;;;5076917;28;20059;-63
2021/05/04 00:52:06;;;;;;;9.05;5.20;;;7.60;1.00;;;;;;5079573;28;20070;-63
2021/05/04 00:54:53;;;;;;;8.50;4.97;;;7.60;1.00;;;;;;5078411;28;20052;-63
2021/05/04 00:57:42;;;;;;;6.60;4.97;;;7.60;1.00;;;;;;5078340;28;20502;-63
2021/05/04 01:00:30;;;;;;;10.32;5.43;;;7.60;1.00;;;;;;5083518;28;20048;-63
2021/05/04 01:03:18;;;;;;;7.57;4.43;;;7.60;1.00;;;;;;5084089;28;20052;-63
2021/05/04 01:06:05;;;;;;;8.73;5.05;;;7.60;1.00;;;;;;5084771;28;20047;-62
2021/05/04 01:08:53;;;;;;;6.03;4.70;;;7.50;1.00;;;;;;5079287;28;20047;-63
2021/05/04 01:11:41;;;;;;;6.18;4.70;;;7.50;1.00;;;;;;5076713;28;20070;-63
2021/05/04 01:14:29;;;;;;;7.28;5.03;;;7.60;1.00;;;;;;5077530;28;20044;-63
2021/05/04 01:17:16;;;;;;;9.35;5.35;;;7.60;1.00;;;;;;5081496;28;20052;-64
2021/05/04 01:20:04;;;;;;;7.13;5.22;;;7.60;1.00;;;;;;5080135;28;20465;-64
2021/05/04 01:22:53;;;;;;;9.13;5.97;;;7.60;1.00;;;;;;5079742;28;20049;-63
2021/05/04 01:25:40;;;;;;;8.88;5.32;;;7.60;1.00;;;;;;5084626;28;20427;-63
2021/05/04 01:28:27;;;;;;;8.32;5.25;;;7.60;1.00;;;;;;5082820;28;20047;-63
2021/05/04 01:31:14;;;;;;;6.72;4.53;;;7.70;1.00;;;;;;5079571;28;20450;-63
2021/05/04 01:34:01;;;;;;;5.72;4.35;;;7.70;1.00;;;;;;5077768;28;20048;-62
2021/05/04 01:36:49;;;;;;;5.45;4.28;;;7.70;1.00;;;;;;5081603;28;20050;-63
2021/05/04 01:39:43;;;;;;;5.72;4.07;;;7.80;1.00;;;;;;5078344;28;20407;-63
2021/05/04 01:42:30;;;;;;;5.20;4.30;;;7.90;1.00;;;;;;5079679;28;20071;-64
2021/05/04 01:45:17;;;;;;;4.93;3.97;;;7.80;1.00;;;;;;5086536;28;20177;-64
2021/05/04 01:48:05;;;;;;;7.32;5.00;;;7.80;1.00;;;;;;5082408;28;20498;-64
2021/05/04 01:50:53;;;;;;;7.20;4.80;;;7.80;1.00;;;;;;5079376;28;20050;-63
2021/05/04 01:53:40;;;;;;;5.57;4.07;;;7.80;1.00;;;;;;5077048;28;20056;-63
2021/05/04 01:56:28;;;;;;;8.07;4.22;;;8.00;1.00;;;;;;5080446;28;20399;-63
2021/05/04 01:59:15;;;;;;;7.00;4.40;;;7.90;1.00;;;;;;5077183;28;20044;-64
2021/05/04 02:02:03;;;;;;;5.30;3.70;;;8.00;1.00;;;;;;5077473;28;20036;-62
2021/05/04 02:04:50;;;;;;;8.45;4.28;;;8.00;1.00;;;;;;5079109;28;20123;-63
2021/05/04 02:07:37;;;;;;;4.95;3.95;;;7.90;1.00;;;;;;5081311;28;20089;-65
2021/05/04 02:10:24;;;;;;;4.53;3.45;;;7.90;1.00;;;;;;5080253;28;20127;-64
2021/05/04 02:13:12;;;;;;;6.85;4.03;;;7.90;1.00;;;;;;5077834;28;20048;-63
2021/05/04 02:15:59;;;;;;;5.18;3.85;;;7.90;1.00;;;;;;5081034;28;20061;-62
2021/05/04 02:18:46;;;;;;;5.78;3.67;;;7.90;1.00;;;;;;5077239;28;20040;-64
2021/05/04 02:21:33;;;;;;;7.50;3.50;;;7.90;1.00;;;;;;5079098;28;20510;-64
2021/05/04 02:24:21;;;;;;;4.90;3.50;;;7.90;1.00;;;;;;5080035;28;20044;-63
2021/05/04 02:27:08;;;;;;;4.35;3.35;;;8.00;1.00;;;;;;5067171;28;20197;-63
2021/05/04 02:29:57;;;;;;;5.18;2.92;;;8.10;1.00;;;;;;5080133;28;20415;-64
2021/05/04 02:32:44;;;;;;;5.13;3.22;;;8.00;1.00;;;;;;5077969;28;20044;-64
2021/05/04 02:35:32;;;;;;;4.43;3.00;;;8.00;1.00;;;;;;5081052;28;20052;-63
2021/05/04 02:38:19;;;;;;;4.72;3.15;;;8.10;1.00;;;;;;5080074;28;20407;-64
2021/05/04 02:41:07;;;;;;;5.13;3.70;;;8.10;1.00;;;;;;5077878;28;20048;-64
2021/05/04 02:43:54;;;;;;;5.22;3.30;;;8.10;1.00;;;;;;5079615;28;20430;-63
2021/05/04 02:46:42;;;;;;;4.50;2.92;;;8.20;1.00;;;;;;5085701;28;21404;-64
2021/05/04 02:49:29;;;;;;;6.47;3.10;;;8.20;1.00;;;;;;5076383;28;20084;-64
2021/05/04 02:52:17;;;;;;;6.05;3.88;;;8.20;1.00;;;;;;5080166;28;20052;-64
2021/05/04 02:55:04;;;;;;;5.15;3.88;;;8.20;1.00;;;;;;5078173;28;20040;-64
2021/05/04 02:57:52;;;;;;;5.22;4.07;;;8.20;1.00;;;;;;5081768;28;20044;-64
2021/05/04 03:00:39;;;;;;;4.57;3.78;;;8.20;1.00;;;;;;5077217;28;20045;-63
2021/05/04 03:03:27;;;;;;;4.82;3.42;;;8.20;1.00;;;;;;5079464;28;20071;-63
2021/05/04 03:06:14;;;;;;;5.20;3.78;;;8.20;1.00;;;;;;5084408;28;20044;-64
2021/05/04 03:09:01;;;;;;;6.93;3.72;;;8.20;1.00;;;;;;5080253;28;20047;-64
2021/05/04 03:11:48;;;;;;;6.13;4.00;;;8.20;1.00;;;;;;5080447;28;20059;-65
2021/05/04 03:14:36;;;;;;;5.63;3.72;;;8.20;1.00;;;;;;5076294;28;20047;-63
2021/05/04 03:17:23;;;;;;;6.57;4.30;;;8.10;1.00;;;;;;5082778;28;20062;-64
2021/05/04 03:20:13;;;;;;;7.55;4.55;;;8.10;1.00;;;;;;5081192;28;20051;-64
2021/05/04 03:23:00;;;;;;;8.80;4.45;;;8.10;1.00;;;;;;5081973;28;20063;-64
2021/05/04 03:25:47;;;;;;;11.30;4.15;;;8.20;1.00;;;;;;5088198;28;20046;-64
2021/05/04 03:28:34;;;;;;;5.82;4.07;;;8.10;1.00;;;;;;5086015;28;20052;-63
2021/05/04 03:31:21;;;;;;;7.07;3.97;;;8.10;1.00;;;;;;5086057;28;20043;-63
2021/05/04 03:34:09;;;;;;;5.18;3.60;;;8.10;1.00;;;;;;5080259;28;20149;-64
2021/05/04 03:36:57;;;;;;;6.72;4.18;;;8.10;1.00;;;;;;5083998;28;20411;-64
2021/05/04 03:39:44;;;;;;;7.00;4.60;;;8.10;1.00;;;;;;5083458;28;20036;-64
2021/05/04 03:42:32;;;;;;;9.98;3.92;;;8.10;1.00;;;;;;5081633;28;20493;-64
2021/05/04 03:45:19;;;;;;;11.90;3.83;;;8.10;1.00;;;;;;5081447;28;20431;-64
2021/05/04 03:48:07;;;;;;;9.75;4.47;;;8.30;1.00;;;;;;5085085;28;20040;-64
2021/05/04 03:50:54;;;;;;;8.00;3.80;;;8.40;1.00;;;;;;5085169;28;20036;-64
2021/05/04 03:53:42;;;;;;;5.38;3.45;;;8.40;1.00;;;;;;5080492;28;20056;-64
2021/05/04 03:56:29;;;;;;;5.70;3.10;;;8.50;1.00;;;;;;5080893;28;20500;-64
2021/05/04 03:59:16;;;;;;;8.85;3.50;;;8.50;1.00;;;;;;5083490;28;20534;-64
2021/05/04 04:02:03;;;;;;;4.68;3.08;;;8.40;1.00;;;;;;5080650;28;20044;-63
2021/05/04 04:04:50;;;;;;;6.40;3.20;;;8.50;1.00;;;;;;5084003;28;20048;-65
2021/05/04 04:07:38;;;;;;;4.65;2.75;;;8.50;1.00;;;;;;5085824;28;20052;-64
2021/05/04 04:10:26;;;;;;;5.70;3.83;;;8.50;1.00;;;;;;5082560;28;20555;-63
2021/05/04 04:13:13;;;;;;;9.30;3.10;;;8.50;1.00;;;;;;5076692;28;20040;-63
2021/05/04 04:16:01;;;;;;;3.25;2.83;;;8.50;1.00;;;;;;5083361;28;20052;-62
2021/05/04 04:18:48;;;;;;;6.47;3.15;;;8.50;1.00;;;;;;5076961;28;20051;-63
2021/05/04 04:21:35;;;;;;;6.20;3.30;;;8.60;1.00;;;;;;5082869;28;20147;-63
2021/05/04 04:24:22;;;;;;;6.82;3.15;;;8.60;1.00;;;;;;5080833;28;20044;-63
2021/05/04 04:27:11;;;;;;;3.72;2.90;;;8.60;1.00;;;;;;5088387;28;20510;-63
2021/05/04 04:29:59;;;;;;;6.97;3.13;;;8.60;1.00;;;;;;5083608;28;20066;-63
2021/05/04 04:32:46;;;;;;;5.03;3.15;;;8.60;1.00;;;;;;5082661;28;20209;-64
2021/05/04 04:35:34;;;;;;;5.28;3.65;;;8.70;1.00;;;;;;5080838;28;20047;-63
2021/05/04 04:38:24;;;;;;;4.00;3.00;;;8.80;1.00;;;;;;5077561;28;20051;-63
2021/05/04 04:41:11;;;;;;;12.73;3.35;;;8.80;1.00;;;;;;5083413;28;20052;-64
2021/05/04 04:43:59;;;;;;;4.63;2.63;;;8.90;1.00;;;;;;5077789;28;20565;-63
2021/05/04 04:46:46;;;;;;;4.50;2.45;;;9.00;1.00;;;;;;5084576;28;20775;-64
2021/05/04 04:49:34;;;;;;;6.47;2.90;;;9.10;1.00;;;;;;5083800;28;20404;-64
2021/05/04 04:52:21;;;;;;;3.10;2.40;;;9.20;1.00;;;;;;5081603;28;20495;-63
2021/05/04 04:55:09;;;;;;;3.97;2.53;;;9.30;1.00;;;;;;5078809;28;20035;-64
2021/05/04 04:57:56;;;;;;;6.68;2.47;;;9.30;1.00;;;;;;5081421;28;20044;-63
2021/05/04 05:00:44;;;;;;;4.25;2.60;;;9.40;1.00;;;;;;5078922;28;20050;-64
2021/05/04 05:03:31;;;;;;;6.10;3.10;;;9.40;1.00;;;;;;5077041;28;20514;-64
2021/05/04 05:06:19;;;;;;;8.27;2.70;;;9.50;1.00;;;;;;5083520;28;20036;-63
2021/05/04 05:09:07;;;;;;;5.20;2.30;;;9.60;1.00;;;;;;5082872;28;20259;-64
2021/05/04 05:11:54;;;;;;;5.20;2.47;;;9.60;1.00;;;;;;5084291;28;20048;-63
2021/05/04 05:14:42;;;;;;;5.85;2.67;;;9.70;1.00;;;;;;5082973;28;20124;-63
2021/05/04 05:17:30;;;;;;;8.70;3.45;;;9.70;1.00;;;;;;5081448;28;20617;-63
2021/05/04 05:20:17;;;;;;;6.93;2.55;;;9.70;1.00;;;;;;5079934;28;20123;-64
2021/05/04 05:23:05;;;;;;;13.32;3.17;;;9.80;1.00;;;;;;5077512;28;21172;-64
2021/05/04 05:25:52;;;;;;;6.95;3.10;;;9.80;1.00;;;;;;5077916;28;20051;-64
2021/05/04 05:28:39;;;;;;;3.90;2.67;;;10.00;1.00;;;;;;5083644;28;20043;-64
2021/05/04 05:31:30;;;;;;;8.00;2.95;;;10.00;1.00;;;;;;5083119;28;20070;-63
2021/05/04 05:34:18;;;;;;;3.92;2.65;;;10.10;1.00;;;;;;5080826;28;20381;-63
2021/05/04 05:37:05;;;;;;;15.95;3.10;;;10.20;1.00;;;;;;5082552;28;20405;-64
2021/05/04 05:39:52;;;;;;;4.15;2.30;;;10.30;1.00;;;;;;5080662;28;20460;-64
2021/05/04 05:42:40;;;;;;;4.90;2.45;;;10.40;1.00;;;;;;5075407;28;20816;-63
2021/05/04 05:45:27;;;;;;;3.88;2.22;;;10.50;1.00;;;;;;5080861;28;21082;-64
2021/05/04 05:48:14;;;;;;;3.17;2.53;;;10.70;1.00;;;;;;5082687;28;20041;-64
2021/05/04 05:51:02;;;;;;;5.43;2.90;;;10.80;1.00;;;;;;5080588;28;20051;-64
2021/05/04 05:53:49;;;;;;;7.03;2.70;;;11.00;1.00;;;;;;5080252;28;20063;-64
2021/05/04 05:56:37;;;;;;;4.80;2.70;;;11.00;1.00;;;;;;5080292;28;20047;-64
2021/05/04 05:59:24;;;;;;;6.88;2.65;;;11.20;1.00;;;;;;5080388;28;20077;-64
2021/05/04 06:02:11;;;;;;;9.15;2.55;;;11.30;1.00;;;;;;5075255;28;20044;-64
2021/05/04 06:04:59;;;;;;;5.30;2.75;;;11.40;1.00;;;;;;5080521;28;20048;-63
2021/05/04 06:07:47;;;;;;;7.57;2.92;;;11.50;1.00;;;;;;5081576;28;20083;-63
2021/05/04 06:10:35;;;;;;;4.78;2.75;;;11.60;1.00;;;;;;5080293;28;20036;-63
2021/05/04 06:13:22;;;;;;;6.15;2.50;;;11.60;1.00;;;;;;5082445;28;20499;-64
2021/05/04 06:16:09;;;;;;;2.42;2.00;;;11.70;1.00;;;;;;5080252;28;20472;-64
2021/05/04 06:18:56;;;;;;;6.70;2.28;;;11.80;1.00;;;;;;5081789;28;20040;-64
2021/05/04 06:21:48;;;;;;;3.40;2.10;;;11.90;1.00;;;;;;5076027;28;20132;-65
2021/05/04 06:24:36;;;;;;;5.38;2.80;;;12.00;1.00;;;;;;5077175;28;20412;-65
2021/05/04 06:27:23;;;;;;;3.72;2.20;;;12.10;1.00;;;;;;5079911;28;20040;-64
2021/05/04 06:30:13;;;;;;;4.68;2.20;;;12.20;1.00;;;;;;5083564;28;20040;-64
2021/05/04 06:33:03;;;;;;;3.30;1.98;;;12.20;1.00;;;;;;5079686;28;20196;-63
2021/05/04 06:35:50;;;;;;;2.83;2.20;;;12.40;1.00;;;;;;5084878;28;20052;-64
2021/05/04 06:38:37;;;;;;;4.85;2.03;;;12.50;1.00;;;;;;5079869;28;20043;-64
2021/05/04 06:41:28;;;;;;;3.97;1.90;;;12.50;1.00;;;;;;5078195;28;20047;-65
2021/05/04 06:44:15;;;;;;;7.05;1.80;;;12.60;1.00;;;;;;5077321;28;20044;-64
2021/05/04 06:47:03;;;;;;;3.58;2.20;;;12.60;1.00;;;;;;5080088;28;20079;-64
2021/05/04 06:49:50;;;;;;;5.15;2.83;;;12.70;1.00;;;;;;5080035;28;20036;-63
2021/05/04 06:52:37;;;;;;;4.88;2.33;;;12.70;1.00;;;;;;5076901;28;20617;-65
2021/05/04 06:55:25;;;;;;;4.75;2.30;;;12.80;1.00;;;;;;5084413;28;20047;-64
2021/05/04 06:58:13;;;;;;;3.80;2.15;;;12.90;1.00;;;;;;5079918;28;20149;-65
2021/05/04 07:01:00;;;;;;;3.45;1.70;;;12.90;1.00;;;;;;5076235;28;20047;-64
2021/05/04 07:03:47;;;;;;;6.10;1.92;;;13.00;1.00;;;;;;5080113;28;20044;-64
2021/05/04 07:06:35;;;;;;;4.57;1.92;;;13.00;1.00;;;;;;5079643;28;20047;-63
2021/05/04 07:09:22;;;;;;;5.88;1.92;;;13.10;1.00;;;;;;5074592;28;20048;-64
2021/05/04 07:12:10;;;;;;;5.78;2.25;;;13.20;1.00;;;;;;5079592;28;20108;-64
2021/05/04 07:14:58;;;;;;;6.82;3.40;;;13.20;1.00;;;;;;5083051;28;20463;-65
2021/05/04 07:17:48;;;;;;;3.00;1.95;;;13.40;1.00;;;;;;5077420;28;20072;-64
2021/05/04 07:20:36;;;;;;;3.67;1.92;;;13.40;1.00;;;;;;5077932;28;20040;-64
2021/05/04 07:23:23;;;;;;;2.58;1.55;;;13.60;1.00;;;;;;5076918;28;20372;-64
2021/05/04 07:26:13;;;;;;;3.60;2.28;;;13.60;1.00;;;;;;5080089;28;20091;-64
2021/05/04 07:29:00;;;;;;;4.25;1.90;;;13.70;1.00;;;;;;5078388;28;20066;-65
2021/05/04 07:31:48;;;;;;;1.92;1.58;;;13.80;1.00;;;;;;5075819;28;20132;-65
2021/05/04 07:34:35;;;;;;;2.60;1.70;;;13.80;1.00;;;;;;5081296;28;20048;-64
2021/05/04 07:37:22;;;;;;;3.45;1.50;;;14.00;1.00;;;;;;5081860;28;20036;-65
2021/05/04 07:40:11;;;;;;;5.18;1.83;;;14.10;1.00;;;;;;5077233;28;20043;-65
2021/05/04 07:42:58;;;;;;;6.10;1.92;;;14.20;1.00;;;;;;5075347;28;20432;-64
2021/05/04 07:45:45;;;;;;;3.83;1.73;;;14.40;1.00;;;;;;5078598;28;20054;-65
2021/05/04 07:48:33;;;;;;;1.60;1.50;;;14.40;1.00;;;;;;5077252;28;20051;-66
2021/05/04 07:51:20;;;;;;;2.83;1.65;;;14.60;1.00;;;;;;5074807;28;20048;-64
2021/05/04 07:54:08;;;;;;;2.33;1.50;;;14.80;1.00;;;;;;5079045;28;20205;-64
2021/05/04 07:56:55;;;;;;;3.42;2.05;;;14.70;1.00;;;;;;5084312;28;20040;-65
2021/05/04 07:59:42;;;;;;;7.75;1.65;;;14.90;1.00;;;;;;5075612;28;20504;-64
2021/05/04 08:02:29;;;;;;;3.20;1.85;;;15.00;1.00;;;;;;5074028;28;20183;-65
2021/05/04 08:05:17;;;;;;;6.53;1.80;;;15.10;1.00;;;;;;5082335;28;20376;-65
2021/05/04 08:08:05;;;;;;;3.03;2.05;;;15.10;1.00;;;;;;5082303;28;20040;-65
2021/05/04 08:10:52;;;;;;;6.65;1.60;;;15.30;1.00;;;;;;5078699;28;20048;-64
2021/05/04 08:13:39;;;;;;;3.97;1.80;;;15.30;1.00;;;;;;5083807;28;20538;-65
2021/05/04 08:16:28;;;;;;;6.75;1.90;;;15.40;1.00;;;;;;5087596;28;20412;-64
2021/05/04 08:19:16;;;;;;;3.42;1.40;;;15.40;1.00;;;;;;5084841;28;20052;-64
2021/05/04 08:22:04;;;;;;;5.88;3.60;;;15.50;1.00;;;;;;5079332;28;20479;-65
2021/05/04 08:24:51;;;;;;;4.40;1.60;;;15.50;1.00;;;;;;5081885;28;20047;-64
2021/05/04 08:27:38;;;;;;;3.22;1.55;;;15.70;1.00;;;;;;5078464;28;20051;-64
2021/05/04 08:30:26;;;;;;;3.92;1.90;;;15.60;1.00;;;;;;5080813;28;20123;-64
2021/05/04 08:33:16;;;;;;;4.40;1.73;;;15.60;1.00;;;;;;5081874;28;20036;-65
2021/05/04 08:36:04;;;;;;;2.28;1.60;;;15.70;1.00;;;;;;5078729;28;20502;-64
2021/05/04 08:38:53;;;;;;;10.35;2.30;;;15.60;1.00;;;;;;5085209;28;20036;-65
2021/05/04 08:41:41;;;;;;;3.30;1.45;;;15.60;1.00;;;;;;5080144;28;20265;-65
2021/05/04 08:44:30;;;;;;;4.90;1.60;;;15.60;1.00;;;;;;5080045;28;20462;-65
2021/05/04 08:47:19;;;;;;;2.85;1.52;;;15.80;1.00;;;;;;5079027;28;20397;-65
2021/05/04 08:50:08;;;;;;;4.43;2.13;;;15.90;1.00;;;;;;5084151;28;20047;-64
2021/05/04 08:52:55;;;;;;;4.25;1.73;;;16.00;1.00;;;;;;5077257;28;20407;-64
2021/05/04 08:55:43;;;;;;;3.92;1.83;;;16.20;1.00;;;;;;5085018;28;20130;-63
2021/05/04 08:58:31;;;;;;;2.55;1.33;;;16.60;1.00;;;;;;5084661;28;20036;-64
2021/05/04 09:01:33;;;;;;;2.45;1.90;;;16.40;1.00;;;;;;5079526;28;20055;-64
2021/05/04 09:04:34;;;;;;;3.22;1.52;;;16.40;1.00;;;;;;5079748;28;20093;-64
2021/05/04 09:07:25;;;;;;;5.55;2.80;;;16.50;1.00;;;;;;5082921;28;20074;-64
2021/05/04 09:10:28;;;;;;;9.85;2.08;;;16.70;1.00;;;;;;5081979;28;20043;-64
2021/05/04 09:13:22;;;;;;;4.20;1.70;;;16.80;1.00;;;;;;5075870;28;20044;-63
2021/05/04 09:16:22;;;;;;;12.23;1.80;;;16.80;1.00;;;;;;5083093;28;20389;-65
2021/05/04 09:19:19;;;;;;;2.15;1.42;;;16.60;1.00;;;;;;5082604;28;20305;-64
2021/05/04 09:22:06;;;;;;;3.40;1.50;;;16.80;1.00;;;;;;5078248;28;20071;-65
2021/05/04 09:24:53;;;;;;;6.55;1.65;;;16.80;1.00;;;;;;5081872;28;20044;-65
2021/05/04 09:27:58;;;;;;;3.75;1.40;;;16.80;1.00;;;;;;5084725;28;20059;-65
2021/05/04 09:30:52;;;;;;;3.05;1.83;;;17.10;1.00;;;;;;5062303;28;20416;-65
2021/05/04 09:33:39;;;;;;;4.63;1.88;;;17.30;1.00;;;;;;5078176;28;20101;-65
2021/05/04 09:36:54;;;;;;;3.33;1.50;;;17.40;1.00;;;;;;5079616;28;20059;-65
2021/05/04 09:39:41;;;;;;;3.42;1.58;;;17.60;1.00;;;;;;5045193;28;20048;-64
2021/05/04 09:42:31;;;;;;;6.65;1.52;;;17.90;1.00;;;;;;5072137;28;20055;-65
2021/05/04 09:45:23;;;;;;;2.47;1.52;;;18.00;1.00;;;;;;5080115;28;20046;-64
2021/05/04 09:48:17;;;;;;;2.42;1.60;;;17.70;1.00;;;;;;5079978;28;20428;-65
2021/05/04 09:51:07;;;;;;;2.50;1.45;;;17.80;1.00;;;;;;5078294;28;20047;-65
2021/05/04 09:53:59;;;;;;;3.42;1.40;;;17.90;1.00;;;;;;5080003;28;20648;-64
2021/05/04 09:56:48;;;;;;;7.95;1.80;;;18.20;1.00;;;;;;5081929;28;20036;-64
2021/05/04 09:59:46;;;;;;;3.28;1.73;;;18.00;1.00;;;;;;5083638;28;20518;-65
2021/05/04 10:02:34;;;;;;;6.38;1.80;;;18.30;1.00;;;;;;5076838;28;20044;-64
2021/05/04 10:05:22;;;;;;;5.28;2.42;;;18.50;1.00;;;;;;5079039;28;20138;-64
2021/05/04 10:08:09;;;;;;;4.57;1.65;;;18.60;1.00;;;;;;5080830;28;20048;-65
2021/05/04 10:10:59;;;;;;;3.38;1.63;;;18.10;1.00;;;;;;5076292;28;20059;-64
2021/05/04 10:13:51;;;;;;;5.60;1.35;;;18.20;1.00;;;;;;5076936;28;20059;-65
2021/05/04 10:16:39;;;;;;;3.38;1.75;;;17.90;1.00;;;;;;5085025;28;20052;-63
2021/05/04 10:19:27;;;;;;;4.18;1.30;;;17.60;1.00;;;;;;5084110;28;20051;-64
2021/05/04 10:22:15;;;;;;;1.63;1.33;;;18.00;1.00;;;;;;5078743;28;20052;-64
2021/05/04 10:25:04;;;;;;;3.55;1.75;;;17.90;1.00;;;;;;5082524;28;20048;-64
2021/05/04 10:27:53;;;;;;;3.63;1.55;;;17.90;1.00;;;;;;5081836;28;20040;-64
2021/05/04 10:30:41;;;;;;;2.75;1.27;;;18.10;1.00;;;;;;5059850;28;20052;-64
2021/05/04 10:33:31;;;;;;;4.28;1.60;;;18.20;1.00;;;;;;5057292;28;20113;-64
2021/05/04 10:36:34;;;;;;;4.60;1.33;;;18.10;1.00;;;;;;5068532;28;20040;-64
2021/05/04 10:39:40;;;;;;;4.57;1.98;;;18.20;1.00;;;;;;5064169;28;20110;-64
2021/05/04 10:42:36;;;;;;;11.82;1.55;;;18.40;1.00;;;;;;5056273;28;20690;-64
2021/05/04 10:45:39;;;;;;;1.60;1.40;;;17.60;1.00;;;;;;5066595;28;20052;-64
2021/05/04 10:48:38;;;;;;;2.15;1.38;;;17.80;1.00;;;;;;5067391;28;20107;-65
2021/05/04 10:51:42;;;;;;;5.15;1.52;;;17.60;1.00;;;;;;5065977;28;20044;-63
2021/05/04 10:54:54;;;;;;;2.20;1.48;;;17.80;1.00;;;;;;5059265;28;20037;-65
2021/05/04 10:58:14;;;;;;;3.85;1.50;;;18.00;1.00;;;;;;5063604;28;20048;-63
2021/05/04 11:01:07;;;;;;;3.92;1.63;;;18.00;1.00;;;;;;5057288;28;20052;-65
2021/05/04 11:03:58;;;;;;;1.90;1.40;;;17.90;1.00;;;;;;5056905;28;20044;-65
2021/05/04 11:06:48;;;;;;;5.47;1.80;;;17.80;1.00;;;;;;5058219;28;20048;-64
2021/05/04 11:09:39;;;;;;;1.80;1.25;;;17.90;1.00;;;;;;5059108;28;20489;-63
2021/05/04 11:12:37;;;;;;;5.20;1.52;;;18.10;1.00;;;;;;5053081;28;20429;-64
2021/05/04 11:15:26;;;;;;;12.13;2.30;;;17.90;1.00;;;;;;5058412;28;20059;-65
2021/05/04 11:18:13;;;;;;;14.25;3.55;;;17.80;1.00;;;;;;5062360;28;20489;-65
2021/05/04 11:21:20;;;;;;;3.10;1.67;;;17.80;1.00;;;;;;5054976;28;20261;-64
2021/05/04 11:24:10;;;;;;;2.53;1.35;;;18.10;1.00;;;;;;5063001;28;20040;-65
2021/05/04 11:26:59;;;;;;;2.13;1.30;;;17.80;1.00;;;;;;5062978;28;20114;-63
2021/05/04 11:29:49;;;;;;;6.43;1.55;;;17.80;1.00;;;;;;5057993;28;20060;-65
2021/05/04 11:32:41;;;;;;;3.78;1.58;;;17.70;1.00;;;;;;5051617;28;20108;-65
2021/05/04 11:35:36;;;;;;;6.30;1.50;;;17.70;1.00;;;;;;5060675;28;20552;-65
2021/05/04 11:38:24;;;;;;;;;;;17.70;1.00;;;;;;5062948;28;20041;-65
2021/05/04 11:41:12;;;;;;;2.78;1.35;;;17.80;1.00;;;;;;5061691;28;19924;-64
2021/05/04 11:43:59;;;;;;;3.45;1.70;;;17.90;1.00;;;;;;5069729;28;20592;-65
2021/05/04 11:46:47;;;;;;;2.45;1.35;;;17.80;1.00;;;;;;5068602;28;20047;-64
2021/05/04 11:49:34;;;;;;;5.32;1.50;;;17.50;1.00;;;;;;5062363;28;20431;-64
2021/05/04 11:52:23;;;;;;;1.98;1.35;;;17.40;1.00;;;;;;5060469;28;20087;-65
2021/05/04 11:55:15;;;;;;;5.03;1.60;;;17.30;1.00;;;;;;5062905;28;20053;-64
2021/05/04 11:58:04;;;;;;;7.35;2.15;;;17.20;1.00;;;;;;5064543;28;20174;-64
2021/05/04 12:00:59;;;;;;;5.00;1.90;;;17.30;1.00;;;;;;5058233;28;20033;-64
2021/05/04 12:03:51;;;;;;;8.35;1.70;;;17.40;1.00;;;;;;5063158;28;20401;-65
2021/05/04 12:06:44;;;;;;;4.68;1.67;;;17.40;1.00;;;;;;5068621;28;20121;-65
2021/05/04 12:09:34;;;;;;;3.70;1.55;;;17.20;1.00;;;;;;5068276;28;20481;-64
2021/05/04 12:12:22;;;;;;;1.95;1.48;;;17.10;1.00;;;;;;5059827;28;20046;-64
2021/05/04 12:15:12;;;;;;;9.52;2.00;;;17.10;1.00;;;;;;5063504;28;20523;-63
2021/05/04 12:18:09;;;;;;;3.80;1.40;;;16.70;1.00;;;;;;5059700;28;20084;-64
2021/05/04 12:20:58;;;;;;;4.60;1.33;;;17.40;1.00;;;;;;5060168;28;20041;-64
2021/05/04 12:23:47;;;;;;;3.92;1.40;;;17.10;1.00;;;;;;5056463;28;20045;-64
2021/05/04 12:26:34;;;;;;;4.28;1.83;;;17.10;1.00;;;;;;5062867;28;20598;-64
2021/05/04 12:29:25;;;;;;;9.43;1.45;;;17.30;1.00;;;;;;5079809;28;20082;-64
2021/05/04 12:32:12;;;;;;;2.38;1.50;;;17.70;1.00;;;;;;5081644;28;20476;-64
2021/05/04 12:35:14;;;;;;;2.72;1.50;;;17.30;1.00;;;;;;5085363;28;20047;-64
2021/05/04 12:38:13;;;;;;;2.60;1.55;;;16.80;1.00;;;;;;5082238;28;20523;-64
2021/05/04 12:41:07;;;;;;;4.20;1.48;;;16.50;1.00;;;;;;5078688;28;20040;-64
2021/05/04 12:44:03;;;;;;;3.88;1.63;;;16.30;1.00;;;;;;5079519;28;20036;-64
2021/05/04 12:47:00;;;;;;;4.30;1.73;;;16.70;1.00;;;;;;5080699;28;20063;-64
2021/05/04 12:49:49;;;;;;;3.60;1.40;;;15.50;1.00;;;;;;5082833;28;20822;-64
2021/05/04 12:52:38;;;;;;;3.53;1.30;;;15.30;1.00;;;;;;5073523;28;20046;-65
2021/05/04 12:55:26;;;;;;;3.88;1.65;;;15.70;1.00;;;;;;5080490;28;20484;-64
2021/05/04 12:58:13;;;;;;;3.75;1.60;;;15.50;1.00;;;;;;5083931;28;20635;-64
2021/05/04 13:01:09;;;;;;;3.05;1.40;;;15.60;1.00;;;;;;5080844;28;20887;-64
2021/05/04 13:03:57;;;;;;;7.20;1.85;;;15.30;1.00;;;;;;5081033;28;20439;-64
2021/05/04 13:06:48;;;;;;;2.70;1.70;;;15.60;1.00;;;;;;5084366;28;20044;-64
2021/05/04 13:09:49;;;;;;;4.72;1.35;;;15.30;1.00;;;;;;5077433;28;20522;-63
2021/05/04 13:12:46;;;;;;;2.33;1.70;;;15.40;1.00;;;;;;5074620;28;20040;-63
2021/05/04 13:16:04;;;;;;;2.20;1.70;;;15.20;1.00;;;;;;5082450;28;20132;-64
2021/05/04 13:28:56;;;;;;;2.83;1.42;;;15.10;1.00;;;;;;5079523;28;20043;-65
2021/05/04 13:31:47;;;;;;;2.17;1.40;;;15.20;1.00;;;;;;5077037;28;20518;-64
2021/05/04 13:34:38;;;;;;;2.83;1.42;;;14.90;1.00;;;;;;5077442;28;20258;-65
2021/05/04 13:37:29;;;;;;;3.42;1.50;;;14.90;1.00;;;;;;5080747;28;20044;-63
2021/05/04 13:49:33;;;;;;;5.07;2.00;;;14.40;1.00;;;;;;5082097;28;20159;-63
2021/05/04 13:52:20;;;;;;;4.22;1.70;;;14.30;1.00;;;;;;5080055;28;20044;-65
2021/05/04 13:55:08;;;;;;;4.55;1.65;;;14.10;1.00;;;;;;5080221;28;20056;-65
2021/05/04 13:57:57;;;;;;;2.78;1.63;;;14.20;1.00;;;;;;5078068;28;20268;-64
2021/05/04 14:00:51;;;;;;;3.65;2.00;;;14.60;1.00;;;;;;5076109;28;20797;-65
2021/05/04 14:03:47;;;;;;;5.90;2.00;;;14.70;1.00;;;;;;5073588;28;20129;-64
2021/05/04 14:06:49;;;;;;;8.20;1.98;;;15.00;1.00;;;;;;5079502;28;20411;-64
2021/05/04 14:10:02;;;;;;;3.42;1.50;;;15.00;1.00;;;;;;5080080;28;22387;-64
2021/05/04 14:28:12;;;;;;;1.98;1.52;;;14.30;1.00;;;;;;5080626;28;20257;-65
2021/05/04 14:31:00;;;;;;;3.15;1.80;;;14.50;1.00;;;;;;5079179;28;20036;-66
2021/05/04 14:33:47;;;;;;;4.03;1.80;;;14.30;1.00;;;;;;5077996;28;20044;-66
2021/05/04 14:36:55;;;;;;;2.25;1.35;;;14.20;1.00;;;;;;5079686;28;20043;-65
2021/05/04 14:39:52;;;;;;;4.68;1.60;;;14.10;1.00;;;;;;5075683;28;20052;-64
2021/05/04 14:55:41;;;;;;;2.72;1.70;;;14.30;1.00;;;;;;5080417;28;20119;-65
2021/05/04 15:01:38;;;;;;;3.53;1.80;;;13.80;1.00;;;;;;5076149;28;20051;-65
2021/05/04 15:04:26;;;;;;;4.18;1.70;;;13.60;1.00;;;;;;5075205;28;20062;-66
2021/05/04 15:07:14;;;;;;;3.05;1.83;;;13.80;1.00;;;;;;5076953;28;20571;-65
2021/05/04 15:10:03;;;;;;;2.47;1.80;;;13.70;1.00;;;;;;5074523;28;20765;-67
2021/05/04 15:12:50;;;;;;;2.53;1.60;;;13.60;1.00;;;;;;5073163;28;20062;-67
2021/05/04 15:15:46;;;;;;;4.22;1.98;;;13.20;1.00;;;;;;5084954;28;20144;-66
2021/05/04 15:21:47;;;;;;;2.15;1.80;;;13.20;1.00;;;;;;5082155;28;20091;-68
2021/05/04 15:24:36;;;;;;;5.68;1.90;;;13.50;1.00;;;;;;5079790;28;20181;-67
2021/05/04 15:27:23;;;;;;;3.67;1.92;;;13.20;1.00;;;;;;5085897;28;20496;-67
2021/05/04 15:30:11;;;;;;;2.83;2.10;;;13.30;1.00;;;;;;5080927;28;20050;-67
2021/05/04 15:33:01;;;;;;;2.58;1.92;;;13.30;1.00;;;;;;5075221;28;20067;-67
2021/05/04 15:35:48;;;;;;;2.78;2.00;;;13.30;1.00;;;;;;5081629;28;20056;-67
2021/05/04 15:38:38;;;;;;;5.25;2.08;;;13.20;1.00;;;;;;5087785;28;20052;-68
2021/05/04 15:41:26;;;;;;;3.17;1.80;;;13.30;1.00;;;;;;5078253;28;20036;-67
2021/05/04 15:44:14;;;;;;;2.67;2.33;;;13.40;1.00;;;;;;5076379;28;20121;-67
2021/05/04 15:47:23;;;;;;;3.20;2.17;;;12.90;1.00;;;;;;5079936;28;20464;-67
2021/05/04 15:50:21;;;;;;;6.10;3.42;;;13.00;1.00;;;;;;5081785;28;20504;-67
2021/05/04 15:53:19;;;;;;;2.63;2.03;;;13.10;1.00;;;;;;5077702;28;20040;-67